sensor_id;sensor_type;location;lat;lon;timestamp;P1;durP1;ratioP1;P2;durP2;ratioP2
4307;SDS011;2167;53.448;9.984;2023-01-19T00:01:54;7.80;;;5.63;;
4307;SDS011;2167;53.448;9.984;2023-01-19T00:04:20;9.00;;;6.63;;
4307;SDS011;2167;53.448;9.984;2023-01-19T00:06:45;11.67;;;6.10;;
4307;SDS011;2167;53.448;9.984;2023-01-19T00:09:11;11.00;;;5.57;;
4307;SDS011;2167;53.448;9.984;2023-01-19T00:11:37;17.10;;;5.10;;
4307;SDS011;2167;53.448;9.984;2023-01-19T00:14:03;10.20;;;5.83;;
4307;SDS011;2167;53.448;9.984;2023-01-19T00:16:28;6.00;;;3.60;;
4307;SDS011;2167;53.448;9.984;2023-01-19T00:18:54;6.90;;;5.67;;
4307;SDS011;2167;53.448;9.984;2023-01-19T00:21:20;8.93;;;5.17;;
4307;SDS011;2167;53.448;9.984;2023-01-19T00:23:46;10.70;;;6.10;;
4307;SDS011;2167;53.448;9.984;2023-01-19T00:26:12;11.00;;;6.60;;
4307;SDS011;2167;53.448;9.984;2023-01-19T00:28:40;9.90;;;6.73;;
4307;SDS011;2167;53.448;9.984;2023-01-19T00:31:06;7.33;;;5.00;;
4307;SDS011;2167;53.448;9.984;2023-01-19T00:33:32;23.50;;;7.10;;
4307;SDS011;2167;53.448;9.984;2023-01-19T00:35:58;8.73;;;4.57;;
4307;SDS011;2167;53.448;9.984;2023-01-19T00:38:23;11.10;;;5.93;;
4307;SDS011;2167;53.448;9.984;2023-01-19T00:40:49;5.23;;;4.50;;
4307;SDS011;2167;53.448;9.984;2023-01-19T00:43:14;10.97;;;5.00;;
4307;SDS011;2167;53.448;9.984;2023-01-19T00:45:40;9.47;;;6.07;;
4307;SDS011;2167;53.448;9.984;2023-01-19T00:48:06;11.00;;;5.80;;
4307;SDS011;2167;53.448;9.984;2023-01-19T00:50:32;5.43;;;3.57;;
4307;SDS011;2167;53.448;9.984;2023-01-19T00:52:57;5.50;;;3.93;;
4307;SDS011;2167;53.448;9.984;2023-01-19T00:55:29;11.20;;;4.43;;
4307;SDS011;2167;53.448;9.984;2023-01-19T00:57:56;9.53;;;5.50;;
4307;SDS011;2167;53.448;9.984;2023-01-19T01:00:22;9.13;;;6.00;;
4307;SDS011;2167;53.448;9.984;2023-01-19T01:02:49;8.77;;;5.13;;
4307;SDS011;2167;53.448;9.984;2023-01-19T01:05:16;8.53;;;5.27;;
4307;SDS011;2167;53.448;9.984;2023-01-19T01:07:43;11.87;;;6.50;;
4307;SDS011;2167;53.448;9.984;2023-01-19T01:12:40;16.15;;;8.40;;
4307;SDS011;2167;53.448;9.984;2023-01-19T01:15:07;11.50;;;6.20;;
4307;SDS011;2167;53.448;9.984;2023-01-19T01:17:34;7.13;;;4.80;;
4307;SDS011;2167;53.448;9.984;2023-01-19T01:20:00;10.87;;;5.53;;
4307;SDS011;2167;53.448;9.984;2023-01-19T01:22:28;9.53;;;4.87;;
4307;SDS011;2167;53.448;9.984;2023-01-19T01:24:54;9.10;;;5.90;;
4307;SDS011;2167;53.448;9.984;2023-01-19T01:27:20;7.00;;;4.87;;
4307;SDS011;2167;53.448;9.984;2023-01-19T01:29:46;11.10;;;6.20;;
4307;SDS011;2167;53.448;9.984;2023-01-19T01:32:12;7.17;;;5.10;;
4307;SDS011;2167;53.448;9.984;2023-01-19T01:34:38;8.47;;;5.37;;
4307;SDS011;2167;53.448;9.984;2023-01-19T01:37:04;13.47;;;5.60;;
4307;SDS011;2167;53.448;9.984;2023-01-19T01:39:33;8.57;;;5.37;;
4307;SDS011;2167;53.448;9.984;2023-01-19T01:41:59;9.17;;;5.37;;
4307;SDS011;2167;53.448;9.984;2023-01-19T01:44:44;8.93;;;5.53;;
4307;SDS011;2167;53.448;9.984;2023-01-19T01:47:20;13.60;;;6.03;;
4307;SDS011;2167;53.448;9.984;2023-01-19T01:50:10;9.43;;;6.20;;
4307;SDS011;2167;53.448;9.984;2023-01-19T01:52:46;8.47;;;4.70;;
4307;SDS011;2167;53.448;9.984;2023-01-19T01:55:16;9.10;;;6.22;;
4307;SDS011;2167;53.448;9.984;2023-01-19T01:57:46;11.67;;;6.00;;
4307;SDS011;2167;53.448;9.984;2023-01-19T02:00:22;11.13;;;6.10;;
4307;SDS011;2167;53.448;9.984;2023-01-19T02:02:49;15.03;;;5.50;;
4307;SDS011;2167;53.448;9.984;2023-01-19T02:05:28;6.23;;;4.50;;
4307;SDS011;2167;53.448;9.984;2023-01-19T02:10:49;8.93;;;5.93;;
4307;SDS011;2167;53.448;9.984;2023-01-19T02:13:35;7.83;;;4.97;;
4307;SDS011;2167;53.448;9.984;2023-01-19T02:16:05;12.10;;;5.67;;
4307;SDS011;2167;53.448;9.984;2023-01-19T02:18:32;6.70;;;4.80;;
4307;SDS011;2167;53.448;9.984;2023-01-19T02:21:07;5.63;;;4.50;;
4307;SDS011;2167;53.448;9.984;2023-01-19T02:23:50;15.10;;;6.70;;
4307;SDS011;2167;53.448;9.984;2023-01-19T02:26:19;8.80;;;5.10;;
4307;SDS011;2167;53.448;9.984;2023-01-19T02:28:47;9.10;;;5.90;;
4307;SDS011;2167;53.448;9.984;2023-01-19T02:31:16;12.20;;;7.63;;
4307;SDS011;2167;53.448;9.984;2023-01-19T02:33:42;14.87;;;6.97;;
4307;SDS011;2167;53.448;9.984;2023-01-19T02:36:08;13.70;;;6.07;;
4307;SDS011;2167;53.448;9.984;2023-01-19T02:38:37;8.90;;;6.10;;
4307;SDS011;2167;53.448;9.984;2023-01-19T02:41:04;8.17;;;4.73;;
4307;SDS011;2167;53.448;9.984;2023-01-19T02:43:32;10.27;;;6.30;;
4307;SDS011;2167;53.448;9.984;2023-01-19T02:46:00;8.60;;;4.60;;
4307;SDS011;2167;53.448;9.984;2023-01-19T02:48:25;8.30;;;5.10;;
4307;SDS011;2167;53.448;9.984;2023-01-19T02:50:57;11.20;;;4.77;;
4307;SDS011;2167;53.448;9.984;2023-01-19T02:59:03;9.17;;;5.67;;
4307;SDS011;2167;53.448;9.984;2023-01-19T03:01:39;9.07;;;4.90;;
4307;SDS011;2167;53.448;9.984;2023-01-19T03:09:28;6.90;;;6.20;;
4307;SDS011;2167;53.448;9.984;2023-01-19T03:12:49;8.73;;;4.70;;
4307;SDS011;2167;53.448;9.984;2023-01-19T03:14:47;12.10;;;6.00;;
4307;SDS011;2167;53.448;9.984;2023-01-19T03:17:15;16.33;;;7.45;;
4307;SDS011;2167;53.448;9.984;2023-01-19T03:19:42;8.33;;;5.77;;
4307;SDS011;2167;53.448;9.984;2023-01-19T03:22:13;10.13;;;6.10;;
4307;SDS011;2167;53.448;9.984;2023-01-19T03:24:45;12.47;;;6.57;;
4307;SDS011;2167;53.448;9.984;2023-01-19T03:27:13;11.20;;;7.60;;
4307;SDS011;2167;53.448;9.984;2023-01-19T03:29:45;12.07;;;7.85;;
4307;SDS011;2167;53.448;9.984;2023-01-19T03:32:16;13.00;;;7.03;;
4307;SDS011;2167;53.448;9.984;2023-01-19T03:34:45;13.43;;;6.33;;
4307;SDS011;2167;53.448;9.984;2023-01-19T03:37:13;8.07;;;5.27;;
4307;SDS011;2167;53.448;9.984;2023-01-19T03:39:41;11.00;;;5.67;;
4307;SDS011;2167;53.448;9.984;2023-01-19T03:42:08;6.83;;;5.30;;
4307;SDS011;2167;53.448;9.984;2023-01-19T03:44:37;6.07;;;5.30;;
4307;SDS011;2167;53.448;9.984;2023-01-19T03:47:05;11.90;;;6.03;;
4307;SDS011;2167;53.448;9.984;2023-01-19T03:49:32;11.50;;;6.13;;
4307;SDS011;2167;53.448;9.984;2023-01-19T03:51:59;8.17;;;6.53;;
4307;SDS011;2167;53.448;9.984;2023-01-19T03:54:25;9.63;;;5.60;;
4307;SDS011;2167;53.448;9.984;2023-01-19T03:56:52;8.47;;;5.70;;
4307;SDS011;2167;53.448;9.984;2023-01-19T03:59:18;12.57;;;6.87;;
4307;SDS011;2167;53.448;9.984;2023-01-19T04:01:44;12.40;;;4.90;;
4307;SDS011;2167;53.448;9.984;2023-01-19T04:04:10;11.20;;;7.03;;
4307;SDS011;2167;53.448;9.984;2023-01-19T04:06:37;12.13;;;6.50;;
4307;SDS011;2167;53.448;9.984;2023-01-19T04:09:03;10.80;;;7.00;;
4307;SDS011;2167;53.448;9.984;2023-01-19T04:11:29;11.13;;;7.10;;
4307;SDS011;2167;53.448;9.984;2023-01-19T04:13:55;6.50;;;5.47;;
4307;SDS011;2167;53.448;9.984;2023-01-19T04:16:21;9.97;;;5.60;;
4307;SDS011;2167;53.448;9.984;2023-01-19T04:18:47;10.70;;;5.53;;
4307;SDS011;2167;53.448;9.984;2023-01-19T04:21:13;10.40;;;6.90;;
4307;SDS011;2167;53.448;9.984;2023-01-19T04:23:39;15.50;;;6.13;;
4307;SDS011;2167;53.448;9.984;2023-01-19T04:26:06;8.10;;;5.47;;
4307;SDS011;2167;53.448;9.984;2023-01-19T04:28:33;15.90;;;9.50;;
4307;SDS011;2167;53.448;9.984;2023-01-19T04:30:59;13.20;;;7.20;;
4307;SDS011;2167;53.448;9.984;2023-01-19T04:33:25;13.63;;;7.90;;
4307;SDS011;2167;53.448;9.984;2023-01-19T04:35:52;13.70;;;6.10;;
4307;SDS011;2167;53.448;9.984;2023-01-19T04:38:18;14.77;;;6.13;;
4307;SDS011;2167;53.448;9.984;2023-01-19T04:40:44;16.48;;;9.73;;
4307;SDS011;2167;53.448;9.984;2023-01-19T04:43:10;14.73;;;8.83;;
4307;SDS011;2167;53.448;9.984;2023-01-19T04:45:36;11.33;;;6.63;;
4307;SDS011;2167;53.448;9.984;2023-01-19T04:48:02;11.33;;;6.43;;
4307;SDS011;2167;53.448;9.984;2023-01-19T04:50:31;15.63;;;8.20;;
4307;SDS011;2167;53.448;9.984;2023-01-19T04:52:57;10.50;;;6.40;;
4307;SDS011;2167;53.448;9.984;2023-01-19T04:55:22;9.13;;;5.63;;
4307;SDS011;2167;53.448;9.984;2023-01-19T04:57:48;15.20;;;7.27;;
4307;SDS011;2167;53.448;9.984;2023-01-19T05:00:14;10.63;;;6.70;;
4307;SDS011;2167;53.448;9.984;2023-01-19T05:02:41;13.70;;;6.90;;
4307;SDS011;2167;53.448;9.984;2023-01-19T05:05:09;9.48;;;5.78;;
4307;SDS011;2167;53.448;9.984;2023-01-19T05:07:35;9.93;;;6.50;;
4307;SDS011;2167;53.448;9.984;2023-01-19T05:10:01;13.40;;;6.83;;
4307;SDS011;2167;53.448;9.984;2023-01-19T05:12:27;12.57;;;7.13;;
4307;SDS011;2167;53.448;9.984;2023-01-19T05:14:53;8.53;;;6.53;;
4307;SDS011;2167;53.448;9.984;2023-01-19T05:17:18;11.10;;;5.97;;
4307;SDS011;2167;53.448;9.984;2023-01-19T05:19:44;18.43;;;9.83;;
4307;SDS011;2167;53.448;9.984;2023-01-19T05:22:10;11.47;;;7.30;;
4307;SDS011;2167;53.448;9.984;2023-01-19T05:24:35;9.87;;;5.50;;
4307;SDS011;2167;53.448;9.984;2023-01-19T05:27:01;10.80;;;8.20;;
4307;SDS011;2167;53.448;9.984;2023-01-19T05:29:27;18.88;;;11.13;;
4307;SDS011;2167;53.448;9.984;2023-01-19T05:31:52;15.60;;;7.83;;
4307;SDS011;2167;53.448;9.984;2023-01-19T05:34:18;13.97;;;7.67;;
4307;SDS011;2167;53.448;9.984;2023-01-19T05:36:44;15.50;;;7.80;;
4307;SDS011;2167;53.448;9.984;2023-01-19T05:39:09;12.10;;;7.87;;
4307;SDS011;2167;53.448;9.984;2023-01-19T05:41:35;12.20;;;8.03;;
4307;SDS011;2167;53.448;9.984;2023-01-19T05:44:01;12.77;;;6.77;;
4307;SDS011;2167;53.448;9.984;2023-01-19T05:46:26;11.90;;;6.53;;
4307;SDS011;2167;53.448;9.984;2023-01-19T05:48:52;16.77;;;8.57;;
4307;SDS011;2167;53.448;9.984;2023-01-19T05:51:18;14.10;;;7.97;;
4307;SDS011;2167;53.448;9.984;2023-01-19T05:53:43;14.60;;;7.10;;
4307;SDS011;2167;53.448;9.984;2023-01-19T05:56:10;15.90;;;6.43;;
4307;SDS011;2167;53.448;9.984;2023-01-19T05:58:36;11.33;;;6.70;;
4307;SDS011;2167;53.448;9.984;2023-01-19T06:01:07;14.50;;;7.90;;
4307;SDS011;2167;53.448;9.984;2023-01-19T06:03:34;14.68;;;8.90;;
4307;SDS011;2167;53.448;9.984;2023-01-19T06:06:00;15.87;;;9.53;;
4307;SDS011;2167;53.448;9.984;2023-01-19T06:08:27;10.90;;;6.97;;
4307;SDS011;2167;53.448;9.984;2023-01-19T06:10:53;11.90;;;7.33;;
4307;SDS011;2167;53.448;9.984;2023-01-19T06:13:18;10.63;;;6.17;;
4307;SDS011;2167;53.448;9.984;2023-01-19T06:15:44;10.97;;;6.27;;
4307;SDS011;2167;53.448;9.984;2023-01-19T06:18:10;12.20;;;6.73;;
4307;SDS011;2167;53.448;9.984;2023-01-19T06:20:38;11.70;;;7.00;;
4307;SDS011;2167;53.448;9.984;2023-01-19T06:23:04;17.20;;;9.83;;
4307;SDS011;2167;53.448;9.984;2023-01-19T06:25:30;14.57;;;8.00;;
4307;SDS011;2167;53.448;9.984;2023-01-19T06:27:55;16.48;;;8.38;;
4307;SDS011;2167;53.448;9.984;2023-01-19T06:30:21;15.73;;;8.93;;
4307;SDS011;2167;53.448;9.984;2023-01-19T06:32:47;14.93;;;8.63;;
4307;SDS011;2167;53.448;9.984;2023-01-19T06:35:12;14.23;;;8.27;;
4307;SDS011;2167;53.448;9.984;2023-01-19T06:37:38;8.70;;;6.80;;
4307;SDS011;2167;53.448;9.984;2023-01-19T06:40:04;16.83;;;9.43;;
4307;SDS011;2167;53.448;9.984;2023-01-19T06:42:30;12.27;;;6.70;;
4307;SDS011;2167;53.448;9.984;2023-01-19T06:44:56;25.40;;;10.47;;
4307;SDS011;2167;53.448;9.984;2023-01-19T06:47:22;12.60;;;7.70;;
4307;SDS011;2167;53.448;9.984;2023-01-19T06:49:47;15.80;;;7.70;;
4307;SDS011;2167;53.448;9.984;2023-01-19T06:52:13;11.00;;;7.17;;
4307;SDS011;2167;53.448;9.984;2023-01-19T06:54:41;21.90;;;11.63;;
4307;SDS011;2167;53.448;9.984;2023-01-19T06:57:07;16.03;;;9.50;;
4307;SDS011;2167;53.448;9.984;2023-01-19T06:59:34;12.00;;;8.00;;
4307;SDS011;2167;53.448;9.984;2023-01-19T07:02:00;18.40;;;8.80;;
4307;SDS011;2167;53.448;9.984;2023-01-19T07:04:26;22.63;;;12.70;;
4307;SDS011;2167;53.448;9.984;2023-01-19T07:06:51;15.83;;;8.23;;
4307;SDS011;2167;53.448;9.984;2023-01-19T07:09:17;17.03;;;9.53;;
4307;SDS011;2167;53.448;9.984;2023-01-19T07:11:44;14.00;;;8.23;;
4307;SDS011;2167;53.448;9.984;2023-01-19T07:14:10;15.43;;;7.83;;
4307;SDS011;2167;53.448;9.984;2023-01-19T07:16:36;24.92;;;13.70;;
4307;SDS011;2167;53.448;9.984;2023-01-19T07:19:02;19.30;;;10.07;;
4307;SDS011;2167;53.448;9.984;2023-01-19T07:21:28;22.57;;;10.60;;
4307;SDS011;2167;53.448;9.984;2023-01-19T07:23:53;19.57;;;8.77;;
4307;SDS011;2167;53.448;9.984;2023-01-19T07:26:19;13.97;;;8.73;;
4307;SDS011;2167;53.448;9.984;2023-01-19T07:28:46;22.20;;;12.35;;
4307;SDS011;2167;53.448;9.984;2023-01-19T07:31:12;21.33;;;12.13;;
4307;SDS011;2167;53.448;9.984;2023-01-19T07:33:38;22.90;;;9.00;;
4307;SDS011;2167;53.448;9.984;2023-01-19T07:36:04;17.37;;;8.50;;
4307;SDS011;2167;53.448;9.984;2023-01-19T07:38:29;17.40;;;10.90;;
4307;SDS011;2167;53.448;9.984;2023-01-19T07:41:02;21.73;;;11.40;;
4307;SDS011;2167;53.448;9.984;2023-01-19T07:43:29;28.98;;;15.90;;
4307;SDS011;2167;53.448;9.984;2023-01-19T07:45:56;20.30;;;11.97;;
4307;SDS011;2167;53.448;9.984;2023-01-19T07:48:22;19.47;;;9.17;;
4307;SDS011;2167;53.448;9.984;2023-01-19T07:50:48;18.80;;;9.77;;
4307;SDS011;2167;53.448;9.984;2023-01-19T07:53:13;25.43;;;11.80;;
4307;SDS011;2167;53.448;9.984;2023-01-19T07:55:39;18.17;;;10.13;;
4307;SDS011;2167;53.448;9.984;2023-01-19T07:58:05;14.97;;;10.13;;
4307;SDS011;2167;53.448;9.984;2023-01-19T08:00:32;13.33;;;9.50;;
4307;SDS011;2167;53.448;9.984;2023-01-19T08:03:04;17.27;;;10.10;;
4307;SDS011;2167;53.448;9.984;2023-01-19T08:05:30;13.93;;;10.00;;
4307;SDS011;2167;53.448;9.984;2023-01-19T08:07:57;25.87;;;14.27;;
4307;SDS011;2167;53.448;9.984;2023-01-19T08:10:24;17.43;;;10.37;;
4307;SDS011;2167;53.448;9.984;2023-01-19T08:12:54;23.43;;;11.20;;
4307;SDS011;2167;53.448;9.984;2023-01-19T08:15:21;18.67;;;10.57;;
4307;SDS011;2167;53.448;9.984;2023-01-19T08:17:55;20.23;;;10.60;;
4307;SDS011;2167;53.448;9.984;2023-01-19T08:20:21;14.33;;;8.03;;
4307;SDS011;2167;53.448;9.984;2023-01-19T08:22:47;13.90;;;7.97;;
4307;SDS011;2167;53.448;9.984;2023-01-19T08:25:13;22.07;;;11.67;;
4307;SDS011;2167;53.448;9.984;2023-01-19T08:27:39;21.30;;;10.63;;
4307;SDS011;2167;53.448;9.984;2023-01-19T08:30:04;14.00;;;9.23;;
4307;SDS011;2167;53.448;9.984;2023-01-19T08:32:30;16.97;;;9.10;;
4307;SDS011;2167;53.448;9.984;2023-01-19T08:34:56;19.27;;;12.20;;
4307;SDS011;2167;53.448;9.984;2023-01-19T08:37:22;18.03;;;10.57;;
4307;SDS011;2167;53.448;9.984;2023-01-19T08:39:48;17.60;;;7.77;;
4307;SDS011;2167;53.448;9.984;2023-01-19T08:42:14;15.80;;;10.60;;
4307;SDS011;2167;53.448;9.984;2023-01-19T08:44:39;18.33;;;9.60;;
4307;SDS011;2167;53.448;9.984;2023-01-19T08:47:05;13.87;;;8.57;;
4307;SDS011;2167;53.448;9.984;2023-01-19T08:49:32;23.40;;;9.57;;
4307;SDS011;2167;53.448;9.984;2023-01-19T08:51:57;15.27;;;9.33;;
4307;SDS011;2167;53.448;9.984;2023-01-19T08:54:23;15.50;;;8.37;;
4307;SDS011;2167;53.448;9.984;2023-01-19T08:56:49;17.03;;;12.80;;
4307;SDS011;2167;53.448;9.984;2023-01-19T08:59:14;19.23;;;10.27;;
4307;SDS011;2167;53.448;9.984;2023-01-19T09:01:40;19.33;;;9.83;;
4307;SDS011;2167;53.448;9.984;2023-01-19T09:04:06;24.70;;;11.13;;
4307;SDS011;2167;53.448;9.984;2023-01-19T09:06:32;21.07;;;9.80;;
4307;SDS011;2167;53.448;9.984;2023-01-19T09:08:58;16.33;;;8.57;;
4307;SDS011;2167;53.448;9.984;2023-01-19T09:11:23;24.95;;;12.48;;
4307;SDS011;2167;53.448;9.984;2023-01-19T09:13:49;18.03;;;9.87;;
4307;SDS011;2167;53.448;9.984;2023-01-19T09:16:15;15.73;;;8.90;;
4307;SDS011;2167;53.448;9.984;2023-01-19T09:18:40;16.73;;;9.50;;
4307;SDS011;2167;53.448;9.984;2023-01-19T09:21:06;17.57;;;8.20;;
4307;SDS011;2167;53.448;9.984;2023-01-19T09:23:33;19.00;;;11.25;;
4307;SDS011;2167;53.448;9.984;2023-01-19T09:26:02;16.97;;;9.60;;
4307;SDS011;2167;53.448;9.984;2023-01-19T09:28:29;19.47;;;8.90;;
4307;SDS011;2167;53.448;9.984;2023-01-19T09:30:55;15.33;;;8.73;;
4307;SDS011;2167;53.448;9.984;2023-01-19T09:33:21;17.20;;;9.20;;
4307;SDS011;2167;53.448;9.984;2023-01-19T09:35:48;12.97;;;8.87;;
4307;SDS011;2167;53.448;9.984;2023-01-19T09:38:16;13.23;;;8.37;;
4307;SDS011;2167;53.448;9.984;2023-01-19T09:40:52;14.40;;;8.43;;
4307;SDS011;2167;53.448;9.984;2023-01-19T09:46:11;19.90;;;8.07;;
4307;SDS011;2167;53.448;9.984;2023-01-19T09:48:53;21.80;;;9.80;;
4307;SDS011;2167;53.448;9.984;2023-01-19T09:51:26;11.37;;;8.50;;
4307;SDS011;2167;53.448;9.984;2023-01-19T09:54:15;13.73;;;8.67;;
4307;SDS011;2167;53.448;9.984;2023-01-19T09:56:54;15.43;;;8.33;;
4307;SDS011;2167;53.448;9.984;2023-01-19T10:04:39;14.20;;;6.20;;
4307;SDS011;2167;53.448;9.984;2023-01-19T10:12:54;13.63;;;8.40;;
4307;SDS011;2167;53.448;9.984;2023-01-19T10:29:07;14.13;;;9.17;;
4307;SDS011;2167;53.448;9.984;2023-01-19T10:31:44;15.63;;;8.73;;
4307;SDS011;2167;53.448;9.984;2023-01-19T10:34:12;17.80;;;7.87;;
4307;SDS011;2167;53.448;9.984;2023-01-19T10:36:42;16.37;;;7.10;;
4307;SDS011;2167;53.448;9.984;2023-01-19T10:39:10;16.07;;;8.43;;
4307;SDS011;2167;53.448;9.984;2023-01-19T10:41:43;19.70;;;8.90;;
4307;SDS011;2167;53.448;9.984;2023-01-19T10:44:24;9.13;;;5.13;;
4307;SDS011;2167;53.448;9.984;2023-01-19T10:46:52;10.50;;;7.97;;
4307;SDS011;2167;53.448;9.984;2023-01-19T10:51:51;13.90;;;7.07;;
4307;SDS011;2167;53.448;9.984;2023-01-19T10:54:17;16.67;;;8.43;;
4307;SDS011;2167;53.448;9.984;2023-01-19T10:56:48;16.80;;;7.67;;
4307;SDS011;2167;53.448;9.984;2023-01-19T10:59:28;14.97;;;8.10;;
4307;SDS011;2167;53.448;9.984;2023-01-19T11:02:36;15.67;;;6.90;;
4307;SDS011;2167;53.448;9.984;2023-01-19T11:04:46;23.47;;;8.80;;
4307;SDS011;2167;53.448;9.984;2023-01-19T11:09:39;10.20;;;7.43;;
4307;SDS011;2167;53.448;9.984;2023-01-19T11:12:04;13.83;;;8.07;;
4307;SDS011;2167;53.448;9.984;2023-01-19T11:14:39;12.17;;;7.90;;
4307;SDS011;2167;53.448;9.984;2023-01-19T11:17:04;14.17;;;7.83;;
4307;SDS011;2167;53.448;9.984;2023-01-19T11:19:38;11.17;;;6.40;;
4307;SDS011;2167;53.448;9.984;2023-01-19T11:22:17;13.95;;;8.82;;
4307;SDS011;2167;53.448;9.984;2023-01-19T11:24:46;16.57;;;9.07;;
4307;SDS011;2167;53.448;9.984;2023-01-19T11:27:17;10.90;;;7.77;;
4307;SDS011;2167;53.448;9.984;2023-01-19T11:29:46;12.10;;;8.33;;
4307;SDS011;2167;53.448;9.984;2023-01-19T11:32:21;13.83;;;6.67;;
4307;SDS011;2167;53.448;9.984;2023-01-19T11:34:50;17.23;;;9.23;;
4307;SDS011;2167;53.448;9.984;2023-01-19T11:39:45;15.70;;;7.57;;
4307;SDS011;2167;53.448;9.984;2023-01-19T11:42:13;10.80;;;6.30;;
4307;SDS011;2167;53.448;9.984;2023-01-19T11:47:28;14.93;;;7.80;;
4307;SDS011;2167;53.448;9.984;2023-01-19T11:50:12;13.30;;;7.60;;
4307;SDS011;2167;53.448;9.984;2023-01-19T11:52:43;13.30;;;7.53;;
4307;SDS011;2167;53.448;9.984;2023-01-19T11:55:16;11.07;;;6.83;;
4307;SDS011;2167;53.448;9.984;2023-01-19T11:57:50;17.93;;;7.53;;
4307;SDS011;2167;53.448;9.984;2023-01-19T12:00:25;14.97;;;7.60;;
4307;SDS011;2167;53.448;9.984;2023-01-19T12:03:23;17.25;;;9.77;;
4307;SDS011;2167;53.448;9.984;2023-01-19T12:05:58;16.90;;;8.23;;
4307;SDS011;2167;53.448;9.984;2023-01-19T12:08:49;17.73;;;7.80;;
4307;SDS011;2167;53.448;9.984;2023-01-19T12:11:24;9.60;;;6.30;;
4307;SDS011;2167;53.448;9.984;2023-01-19T12:13:55;9.93;;;7.93;;
4307;SDS011;2167;53.448;9.984;2023-01-19T12:16:22;12.80;;;7.53;;
4307;SDS011;2167;53.448;9.984;2023-01-19T12:19:12;17.30;;;7.83;;
4307;SDS011;2167;53.448;9.984;2023-01-19T12:21:42;12.63;;;7.53;;
4307;SDS011;2167;53.448;9.984;2023-01-19T12:24:15;12.03;;;6.77;;
4307;SDS011;2167;53.448;9.984;2023-01-19T12:26:49;13.07;;;6.33;;
4307;SDS011;2167;53.448;9.984;2023-01-19T12:29:19;12.47;;;8.67;;
4307;SDS011;2167;53.448;9.984;2023-01-19T12:32:15;13.77;;;7.00;;
4307;SDS011;2167;53.448;9.984;2023-01-19T12:34:38;14.13;;;8.60;;
4307;SDS011;2167;53.448;9.984;2023-01-19T12:37:35;15.33;;;7.83;;
4307;SDS011;2167;53.448;9.984;2023-01-19T12:43:00;16.33;;;9.90;;
4307;SDS011;2167;53.448;9.984;2023-01-19T12:45:32;11.17;;;6.83;;
4307;SDS011;2167;53.448;9.984;2023-01-19T12:48:03;21.43;;;7.67;;
4307;SDS011;2167;53.448;9.984;2023-01-19T12:50:36;15.17;;;8.80;;
4307;SDS011;2167;53.448;9.984;2023-01-19T12:53:03;15.53;;;9.30;;
4307;SDS011;2167;53.448;9.984;2023-01-19T12:55:39;16.47;;;7.70;;
4307;SDS011;2167;53.448;9.984;2023-01-19T12:58:15;9.13;;;6.00;;
4307;SDS011;2167;53.448;9.984;2023-01-19T13:00:45;8.30;;;6.67;;
4307;SDS011;2167;53.448;9.984;2023-01-19T13:15:56;15.20;;;6.47;;
4307;SDS011;2167;53.448;9.984;2023-01-19T13:18:47;16.77;;;6.53;;
4307;SDS011;2167;53.448;9.984;2023-01-19T13:21:31;13.33;;;6.87;;
4307;SDS011;2167;53.448;9.984;2023-01-19T13:24:05;13.90;;;8.70;;
4307;SDS011;2167;53.448;9.984;2023-01-19T13:29:07;11.30;;;5.93;;
4307;SDS011;2167;53.448;9.984;2023-01-19T13:31:59;14.10;;;7.17;;
4307;SDS011;2167;53.448;9.984;2023-01-19T13:34:28;9.77;;;4.73;;
4307;SDS011;2167;53.448;9.984;2023-01-19T13:37:00;15.27;;;8.93;;
4307;SDS011;2167;53.448;9.984;2023-01-19T13:42:01;12.37;;;6.60;;
4307;SDS011;2167;53.448;9.984;2023-01-19T13:44:51;12.50;;;6.80;;
4307;SDS011;2167;53.448;9.984;2023-01-19T13:47:21;12.27;;;7.27;;
4307;SDS011;2167;53.448;9.984;2023-01-19T13:49:50;17.00;;;8.00;;
4307;SDS011;2167;53.448;9.984;2023-01-19T13:52:25;15.33;;;6.30;;
4307;SDS011;2167;53.448;9.984;2023-01-19T13:54:52;11.37;;;6.87;;
4307;SDS011;2167;53.448;9.984;2023-01-19T13:57:22;11.50;;;6.33;;
4307;SDS011;2167;53.448;9.984;2023-01-19T14:00:15;11.10;;;6.47;;
4307;SDS011;2167;53.448;9.984;2023-01-19T14:03:28;9.00;;;5.40;;
4307;SDS011;2167;53.448;9.984;2023-01-19T14:05:42;12.13;;;5.60;;
4307;SDS011;2167;53.448;9.984;2023-01-19T14:16:05;11.57;;;6.50;;
4307;SDS011;2167;53.448;9.984;2023-01-19T14:18:41;13.63;;;6.13;;
4307;SDS011;2167;53.448;9.984;2023-01-19T14:21:11;9.87;;;6.47;;
4307;SDS011;2167;53.448;9.984;2023-01-19T14:29:06;9.20;;;4.40;;
4307;SDS011;2167;53.448;9.984;2023-01-19T14:31:42;13.52;;;7.18;;
4307;SDS011;2167;53.448;9.984;2023-01-19T14:36:58;10.73;;;5.67;;
4307;SDS011;2167;53.448;9.984;2023-01-19T14:39:26;10.67;;;5.30;;
4307;SDS011;2167;53.448;9.984;2023-01-19T14:41:55;11.50;;;5.53;;
4307;SDS011;2167;53.448;9.984;2023-01-19T14:44:38;7.77;;;4.10;;
4307;SDS011;2167;53.448;9.984;2023-01-19T14:47:05;7.27;;;5.17;;
4307;SDS011;2167;53.448;9.984;2023-01-19T14:49:45;12.47;;;6.03;;
4307;SDS011;2167;53.448;9.984;2023-01-19T14:52:25;8.87;;;5.53;;
4307;SDS011;2167;53.448;9.984;2023-01-19T14:54:55;16.10;;;7.33;;
4307;SDS011;2167;53.448;9.984;2023-01-19T14:57:22;13.67;;;6.30;;
4307;SDS011;2167;53.448;9.984;2023-01-19T14:59:48;12.10;;;7.43;;
4307;SDS011;2167;53.448;9.984;2023-01-19T15:02:15;11.23;;;5.20;;
4307;SDS011;2167;53.448;9.984;2023-01-19T15:04:43;9.37;;;5.00;;
4307;SDS011;2167;53.448;9.984;2023-01-19T15:07:16;7.23;;;5.83;;
4307;SDS011;2167;53.448;9.984;2023-01-19T15:09:43;7.43;;;5.07;;
4307;SDS011;2167;53.448;9.984;2023-01-19T15:12:10;9.63;;;4.20;;
4307;SDS011;2167;53.448;9.984;2023-01-19T15:14:38;6.50;;;4.20;;
4307;SDS011;2167;53.448;9.984;2023-01-19T15:17:04;5.70;;;3.80;;
4307;SDS011;2167;53.448;9.984;2023-01-19T15:19:30;7.00;;;4.13;;
4307;SDS011;2167;53.448;9.984;2023-01-19T15:21:55;6.50;;;4.60;;
4307;SDS011;2167;53.448;9.984;2023-01-19T15:24:21;8.63;;;5.30;;
4307;SDS011;2167;53.448;9.984;2023-01-19T15:26:47;7.63;;;3.80;;
4307;SDS011;2167;53.448;9.984;2023-01-19T15:29:22;10.67;;;6.40;;
4307;SDS011;2167;53.448;9.984;2023-01-19T15:31:50;10.43;;;5.17;;
4307;SDS011;2167;53.448;9.984;2023-01-19T15:34:16;18.03;;;6.13;;
4307;SDS011;2167;53.448;9.984;2023-01-19T15:36:42;12.80;;;5.17;;
4307;SDS011;2167;53.448;9.984;2023-01-19T15:39:08;11.10;;;5.67;;
4307;SDS011;2167;53.448;9.984;2023-01-19T15:41:35;8.73;;;6.10;;
4307;SDS011;2167;53.448;9.984;2023-01-19T15:44:05;10.10;;;4.83;;
4307;SDS011;2167;53.448;9.984;2023-01-19T15:46:32;18.60;;;5.73;;
4307;SDS011;2167;53.448;9.984;2023-01-19T15:48:58;13.40;;;6.57;;
4307;SDS011;2167;53.448;9.984;2023-01-19T15:51:24;8.87;;;5.90;;
4307;SDS011;2167;53.448;9.984;2023-01-19T15:53:51;15.97;;;7.33;;
4307;SDS011;2167;53.448;9.984;2023-01-19T15:56:21;20.57;;;7.60;;
4307;SDS011;2167;53.448;9.984;2023-01-19T15:58:49;10.03;;;7.53;;
4307;SDS011;2167;53.448;9.984;2023-01-19T16:01:16;7.73;;;5.77;;
4307;SDS011;2167;53.448;9.984;2023-01-19T16:03:43;12.23;;;4.33;;
4307;SDS011;2167;53.448;9.984;2023-01-19T16:06:10;14.27;;;6.50;;
4307;SDS011;2167;53.448;9.984;2023-01-19T16:08:36;7.70;;;5.37;;
4307;SDS011;2167;53.448;9.984;2023-01-19T16:11:10;7.10;;;3.57;;
4307;SDS011;2167;53.448;9.984;2023-01-19T16:13:37;9.97;;;5.47;;
4307;SDS011;2167;53.448;9.984;2023-01-19T16:16:08;9.83;;;5.60;;
4307;SDS011;2167;53.448;9.984;2023-01-19T16:18:41;9.33;;;5.40;;
4307;SDS011;2167;53.448;9.984;2023-01-19T16:21:06;9.47;;;6.13;;
4307;SDS011;2167;53.448;9.984;2023-01-19T16:23:32;10.07;;;6.70;;
4307;SDS011;2167;53.448;9.984;2023-01-19T16:25:59;19.73;;;8.23;;
4307;SDS011;2167;53.448;9.984;2023-01-19T16:28:31;14.90;;;8.97;;
4307;SDS011;2167;53.448;9.984;2023-01-19T16:30:57;12.43;;;7.27;;
4307;SDS011;2167;53.448;9.984;2023-01-19T16:33:23;14.43;;;5.37;;
4307;SDS011;2167;53.448;9.984;2023-01-19T16:35:49;8.10;;;4.23;;
4307;SDS011;2167;53.448;9.984;2023-01-19T16:38:14;8.63;;;4.63;;
4307;SDS011;2167;53.448;9.984;2023-01-19T16:40:42;11.37;;;4.60;;
4307;SDS011;2167;53.448;9.984;2023-01-19T16:43:09;8.38;;;4.35;;
4307;SDS011;2167;53.448;9.984;2023-01-19T16:45:37;6.60;;;4.17;;